Time;durP1;ratioP1;P1;durP2;ratioP2;P2;SDS_P1;SDS_P2;PMS_P1;PMS_P2;Temp;Humidity;BMP_temperature;BMP_pressure;BME280_temperature;BME280_humidity;BME280_pressure;Samples;Min_cycle;Max_cycle;Signal;HPM_P1;HPM_P2
2023/01/11 00:01:31;;;;;;;2.83;1.50;;;;;;;;;;4989288;28;20027;-77
2023/01/11 00:03:57;;;;;;;5.35;1.98;;;;;;;;;;4988068;28;20126;-76
2023/01/11 00:06:23;;;;;;;2.70;2.50;;;;;;;;;;4989218;28;20822;-77
2023/01/11 00:08:49;;;;;;;2.60;1.83;;;;;;;;;;4989623;28;20030;-77
2023/01/11 00:11:16;;;;;;;2.72;1.70;;;;;;;;;;4989454;28;20057;-77
2023/01/11 00:13:43;;;;;;;6.57;1.65;;;;;;;;;;4987510;28;20566;-77
2023/01/11 00:16:09;;;;;;;1.05;1.00;;;;;;;;;;4990464;28;20113;-77
2023/01/11 00:18:36;;;;;;;1.95;1.13;;;;;;;;;;4991159;28;20163;-76
2023/01/11 00:21:04;;;;;;;3.65;1.35;;;5.40;99.90;;;;;;4989984;28;20135;-76
2023/01/11 00:23:31;;;;;;;1.77;1.63;;;;;;;;;;4986981;28;20393;-77
2023/01/11 00:25:57;;;;;;;2.45;1.40;;;;;;;;;;4991988;28;20050;-77
2023/01/11 00:28:23;;;;;;;1.95;1.20;;;;;;;;;;5006986;28;20033;-76
2023/01/11 00:30:49;;;;;;;2.88;1.42;;;;;;;;;;4991799;28;20384;-76
2023/01/11 00:33:15;;;;;;;1.58;0.80;;;;;;;;;;4991645;28;20033;-76
2023/01/11 00:35:41;;;;;;;1.17;0.98;;;;;;;;;;4992220;28;20022;-77
2023/01/11 00:38:07;;;;;;;1.38;1.10;;;;;;;;;;4990193;28;20026;-76
2023/01/11 00:40:33;;;;;;;1.55;1.45;;;;;;;;;;4989923;28;20093;-77
2023/01/11 00:48:28;;;;;;;1.50;1.02;;;;;;;;;;4989927;28;20505;-77
2023/01/11 00:50:55;;;;;;;4.38;1.38;;;;;;;;;;4990218;28;20026;-76
2023/01/11 00:53:21;;;;;;;1.77;1.15;;;;;;;;;;4990572;28;20080;-77
2023/01/11 00:55:47;;;;;;;4.60;1.83;;;;;;;;;;4991678;28;20025;-77
2023/01/11 00:58:14;;;;;;;4.22;1.50;;;;;;;;;;4992017;28;20034;-77
2023/01/11 01:00:40;;;;;;;3.85;1.92;;;5.30;99.90;;;;;;4991825;28;20014;-77
2023/01/11 01:03:06;;;;;;;2.63;1.17;;;;;;;;;;4991741;28;20479;-77
2023/01/11 01:05:32;;;;;;;2.63;1.15;;;;;;;;;;4991926;28;20193;-78
2023/01/11 01:07:58;;;;;;;2.33;1.33;;;5.20;99.90;;;;;;4991703;28;20026;-78
2023/01/11 01:10:24;;;;;;;2.92;1.00;;;;;;;;;;4991898;28;20038;-77
2023/01/11 01:15:34;;;;;;;1.60;1.50;;;;;;;;;;4990539;28;20073;-74
2023/01/11 01:18:01;;;;;;;1.42;1.33;;;;;;;;;;4983507;28;20026;-74
2023/01/11 01:20:27;;;;;;;0.98;0.90;;;;;;;;;;4990449;28;20024;-74
2023/01/11 01:22:53;;;;;;;0.68;0.60;;;;;;;;;;4987373;28;20403;-74
2023/01/11 01:25:19;;;;;;;0.70;0.70;;;;;;;;;;4987708;28;20430;-74
2023/01/11 01:27:45;;;;;;;3.22;0.65;;;;;;;;;;4988199;28;20030;-74
2023/01/11 01:30:11;;;;;;;3.88;1.30;;;;;;;;;;4988450;28;20027;-76
2023/01/11 01:32:37;;;;;;;2.75;0.75;;;;;;;;;;4988107;28;20026;-77
2023/01/11 01:35:03;;;;;;;3.97;1.92;;;;;;;;;;4987670;28;20399;-77
2023/01/11 01:37:29;;;;;;;2.63;0.98;;;;;;;;;;4987872;28;20041;-77
2023/01/11 01:39:55;;;;;;;1.05;1.00;;;;;;;;;;4987952;28;20026;-77
2023/01/11 01:42:23;;;;;;;2.10;1.48;;;;;;;;;;5003504;28;20483;-76
2023/01/11 01:45:17;;;;;;;1.25;0.98;;;;;;;;;;4987813;28;20018;-76
2023/01/11 01:47:57;;;;;;;4.03;1.60;;;;;;;;;;4987646;28;20032;-74
2023/01/11 01:50:32;;;;;;;3.83;0.80;;;3.30;99.90;;;;;;4988578;28;20535;-73
2023/01/11 01:53:13;;;;;;;10.25;1.35;;;4.90;99.90;;;;;;4989373;28;20238;-74
2023/01/11 01:55:40;;;;;;;1.05;1.00;;;;;;;;;;4989469;28;20101;-74
2023/01/11 01:58:09;;;;;;;2.60;1.33;;;;;;;;;;4989821;28;20026;-73
2023/01/11 02:00:38;;;;;;;1.52;0.93;;;4.90;99.90;;;;;;4988939;28;20026;-73
2023/01/11 02:03:04;;;;;;;3.65;1.30;;;;;;;;;;4989623;28;20388;-74
2023/01/11 02:05:30;;;;;;;1.25;0.93;;;;;;;;;;4989914;28;20487;-73
2023/01/11 02:07:57;;;;;;;1.17;0.90;;;;;;;;;;4990830;28;20022;-73
2023/01/11 02:10:26;;;;;;;1.85;1.40;;;;;;;;;;4990915;28;20023;-73
2023/01/11 02:13:04;;;;;;;1.92;1.15;;;5.10;99.90;;;;;;4990923;28;20022;-74
2023/01/11 02:15:30;;;;;;;5.75;1.20;;;5.10;99.90;;;;;;4990533;28;20028;-75
2023/01/11 02:17:56;;;;;;;1.58;1.30;;;5.10;99.90;;;;;;4989656;28;20022;-74
2023/01/11 02:20:40;;;;;;;8.93;1.35;;;;;;;;;;4990705;28;20040;-73
2023/01/11 02:23:48;;;;;;;2.10;0.98;;;5.10;99.90;;;;;;4990525;28;20036;-74
2023/01/11 02:26:35;;;;;;;0.80;0.80;;;5.20;99.90;;;;;;4990783;28;20053;-74
2023/01/11 02:29:19;;;;;;;1.70;1.10;;;5.10;99.90;;;;;;4991147;28;20105;-73
2023/01/11 02:31:55;;;;;;;1.42;1.10;;;;;;;;;;4990558;28;20076;-73
2023/01/11 02:34:43;;;;;;;1.48;1.30;;;5.20;99.90;;;;;;4990870;28;20056;-73
2023/01/11 02:37:15;;;;;;;0.80;0.80;;;;;;;;;;4990541;28;20625;-74
2023/01/11 02:40:18;;;;;;;4.90;2.65;;;5.10;99.90;;;;;;4993972;28;20026;-73
2023/01/11 02:45:53;;;;;;;1.45;1.30;;;;;;;;;;4996546;28;20045;-74
2023/01/11 02:48:31;;;;;;;3.35;0.95;;;5.10;99.90;;;;;;4994972;28;20041;-73
2023/01/11 02:51:03;;;;;;;5.97;1.30;;;5.00;99.90;;;;;;4994825;28;20089;-74
2023/01/11 02:53:38;;;;;;;1.55;1.13;;;5.00;99.90;;;;;;4994004;28;20019;-74
2023/01/11 02:56:10;;;;;;;4.32;2.40;;;5.00;99.90;;;;;;4994040;28;20026;-74
2023/01/11 02:58:37;;;;;;;8.48;3.15;;;;;;;;;;4993758;28;20073;-73
2023/01/11 03:01:03;;;;;;;1.88;1.05;;;;;;;;;;4993704;28;20634;-73
2023/01/11 03:03:29;;;;;;;1.42;1.10;;;;;;;;;;4993678;28;20038;-74
2023/01/11 03:06:03;;;;;;;1.73;0.95;;;5.00;99.90;;;;;;4993811;28;20409;-74
2023/01/11 03:09:06;;;;;;;7.20;2.22;;;4.90;99.90;;;;;;4994235;28;20113;-74
2023/01/11 03:14:41;;;;;;;0.70;0.70;;;;;;;;;;4993673;28;20126;-74
2023/01/11 03:17:41;;;;;;;3.72;1.30;;;5.00;99.90;;;;;;4993439;28;20117;-75
2023/01/11 03:20:16;;;;;;;1.92;1.20;;;5.10;99.90;;;;;;4993574;28;20452;-73
2023/01/11 03:23:04;;;;;;;4.95;1.83;;;;;;;;;;4993325;28;20077;-74
2023/01/11 03:25:30;;;;;;;1.65;1.00;;;;;;;;;;4993400;28;20209;-74
2023/01/11 03:28:02;;;;;;;2.40;0.80;;;;;;;;;;4993702;28;20262;-74
2023/01/11 03:30:28;;;;;;;1.27;1.17;;;;;;;;;;4993481;28;20045;-74
2023/01/11 03:33:13;;;;;;;3.53;0.95;;;;;;;;;;4993438;28;20480;-73
2023/01/11 03:35:42;;;;;;;3.33;1.00;;;4.80;99.90;;;;;;5008016;28;20030;-74
2023/01/11 03:38:14;;;;;;;0.88;0.88;;;;;;;;;;4993149;28;20026;-74
2023/01/11 03:40:42;;;;;;;1.67;1.30;;;;;;;;;;4993132;28;20084;-73
2023/01/11 03:43:10;;;;;;;2.28;1.52;;;;;;;;;;4993017;28;20042;-74
2023/01/11 03:45:46;;;;;;;3.08;1.65;;;4.80;99.90;;;;;;4992864;28;20030;-73
2023/01/11 03:48:14;;;;;;;3.42;1.55;;;;;;;;;;5009026;28;20027;-74
2023/01/11 03:50:41;;;;;;;2.28;1.10;;;;;;;;;;4992091;28;20030;-74
2023/01/11 03:53:07;;;;;;;1.67;1.48;;;;;;;;;;4992912;28;20018;-73
2023/01/11 03:55:36;;;;;;;2.28;2.08;;;;;;;;;;4992777;28;20444;-73
2023/01/11 03:58:02;;;;;;;1.15;0.75;;;5.00;99.90;;;;;;4992788;28;20113;-74
2023/01/11 04:00:30;;;;;;;2.10;1.27;;;;;;;;;;4992387;28;20035;-74
2023/01/11 04:02:55;;;;;;;5.60;1.15;;;5.00;99.90;;;;;;4992494;28;20450;-74
2023/01/11 04:05:21;;;;;;;1.83;1.25;;;5.00;99.90;;;;;;4992928;28;20022;-74
2023/01/11 04:07:47;;;;;;;1.90;1.02;;;;;;;;;;4992628;28;20069;-74
2023/01/11 04:10:13;;;;;;;1.23;1.00;;;5.00;99.90;;;;;;4992856;28;20042;-74
2023/01/11 04:12:38;;;;;;;2.70;1.63;;;5.00;99.90;;;;;;4992736;28;20030;-73
2023/01/11 04:15:04;;;;;;;1.25;1.10;;;4.90;99.90;;;;;;4992679;28;20463;-75
2023/01/11 04:17:31;;;;;;;1.48;0.80;;;;;;;;;;4992634;28;20030;-74
2023/01/11 04:19:57;;;;;;;2.30;1.30;;;;;;;;;;4992459;28;20022;-74
2023/01/11 04:22:23;;;;;;;2.95;1.77;;;;;;;;;;4991963;28;20398;-74
2023/01/11 04:24:49;;;;;;;1.10;0.95;;;5.10;99.90;;;;;;4992201;28;20144;-73
2023/01/11 04:27:14;;;;;;;1.55;0.95;;;5.20;99.90;;;;;;4992659;28;20511;-73
2023/01/11 04:29:40;;;;;;;2.30;1.67;;;;;;;;;;4992579;28;20014;-76
2023/01/11 04:32:06;;;;;;;3.28;1.25;;;5.30;99.90;;;;;;4991826;28;20030;-73
2023/01/11 04:34:32;;;;;;;2.45;1.33;;;5.20;99.90;;;;;;4992236;28;20034;-74
2023/01/11 04:36:57;;;;;;;2.25;1.48;;;5.20;99.90;;;;;;4992326;28;20035;-74
2023/01/11 04:39:23;;;;;;;2.70;1.65;;;;;;;;;;4992126;28;20293;-74
2023/01/11 04:44:34;;;;;;;1.40;1.23;;;5.20;99.90;;;;;;4991967;28;20049;-73
2023/01/11 04:46:59;;;;;;;1.05;0.65;;;5.20;99.90;;;;;;4991760;28;20097;-73
2023/01/11 04:49:25;;;;;;;0.73;0.73;;;5.20;99.90;;;;;;4992321;28;20479;-73
2023/01/11 04:51:51;;;;;;;0.85;0.85;;;;;;;;;;4992155;28;20040;-74
2023/01/11 04:54:17;;;;;;;1.15;0.90;;;;;;;;;;4992209;28;20024;-73
2023/01/11 04:56:43;;;;;;;0.90;0.80;;;;;;;;;;4992768;28;20430;-73
2023/01/11 04:59:09;;;;;;;1.55;0.85;;;;;;;;;;4992008;28;20026;-74
2023/01/11 05:01:35;;;;;;;1.38;0.88;;;;;;;;;;4990740;28;20022;-74
2023/01/11 05:04:01;;;;;;;2.03;0.80;;;;;;;;;;4991580;28;20407;-73
2023/01/11 05:06:27;;;;;;;1.83;1.73;;;;;;;;;;4992393;28;20033;-73
2023/01/11 05:08:53;;;;;;;1.65;1.10;;;5.40;99.90;;;;;;4992552;28;20030;-74
2023/01/11 05:11:19;;;;;;;2.20;0.80;;;;;;;;;;4992482;28;20018;-73
2023/01/11 05:13:44;;;;;;;6.60;1.30;;;5.40;99.90;;;;;;4992217;28;20034;-74
2023/01/11 05:16:12;;;;;;;1.80;1.70;;;;;;;;;;4991333;28;20141;-74
2023/01/11 05:18:42;;;;;;;0.82;0.80;;;5.60;99.90;;;;;;4991572;28;20018;-74
2023/01/11 05:21:09;;;;;;;1.38;1.27;;;5.50;99.90;;;;;;4991250;28;20026;-73
2023/01/11 05:23:36;;;;;;;4.47;1.20;;;;;;;;;;4991627;28;20030;-74
2023/01/11 05:26:03;;;;;;;1.10;1.00;;;;;;;;;;4991051;28;20042;-73
2023/01/11 05:28:29;;;;;;;2.08;1.50;;;;;;;;;;4991411;28;20108;-73
2023/01/11 05:30:55;;;;;;;1.25;1.15;;;;;;;;;;4990825;28;20070;-74
2023/01/11 05:33:21;;;;;;;1.13;0.73;;;5.80;99.90;;;;;;4991352;28;20026;-74
2023/01/11 05:35:47;;;;;;;2.75;1.40;;;5.80;99.90;;;;;;4990766;28;20030;-74
2023/01/11 05:38:13;;;;;;;1.83;1.13;;;;;;;;;;4990639;28;20178;-73
2023/01/11 05:40:39;;;;;;;2.70;1.00;;;;;;;;;;4990992;28;20033;-74
2023/01/11 05:43:05;;;;;;;1.58;0.88;;;;;;;;;;5005522;28;20085;-73
2023/01/11 05:45:32;;;;;;;1.80;0.93;;;;;;;;;;4990740;28;20022;-73
2023/01/11 05:47:58;;;;;;;1.20;0.95;;;;;;;;;;4991035;28;20479;-74
2023/01/11 05:50:25;;;;;;;1.80;0.70;;;;;;;;;;4991548;28;20109;-74
2023/01/11 05:52:51;;;;;;;3.85;1.00;;;;;;;;;;4992031;28;20512;-74
2023/01/11 05:55:17;;;;;;;4.18;1.10;;;;;;;;;;4991386;28;20105;-74
2023/01/11 05:57:44;;;;;;;2.88;0.88;;;;;;;;;;4990982;28;20028;-74
2023/01/11 06:00:11;;;;;;;1.00;0.82;;;5.70;99.90;;;;;;4990669;28;20380;-73
2023/01/11 06:02:37;;;;;;;2.75;1.23;;;;;;;;;;4990648;28;20038;-74
2023/01/11 06:05:04;;;;;;;4.40;1.00;;;;;;;;;;4990247;28;20072;-74
2023/01/11 06:07:30;;;;;;;1.45;1.05;;;5.80;99.90;;;;;;4990680;28;20034;-74
2023/01/11 06:09:55;;;;;;;2.40;1.13;;;5.80;99.90;;;;;;4990266;28;20018;-74
2023/01/11 06:12:21;;;;;;;1.67;1.20;;;5.90;99.90;;;;;;4990553;28;20018;-74
2023/01/11 06:14:47;;;;;;;1.60;1.30;;;;;;;;;;4994034;28;20386;-73
2023/01/11 06:17:13;;;;;;;1.10;1.00;;;;;;;;;;4994294;28;20045;-73
2023/01/11 06:19:39;;;;;;;0.88;0.80;;;5.90;99.90;;;;;;4994924;28;20026;-74
2023/01/11 06:22:05;;;;;;;0.75;0.70;;;;;;;;;;4994478;28;20089;-74
2023/01/11 06:24:31;;;;;;;2.92;1.90;;;;;;;;;;4994186;28;20046;-74
2023/01/11 06:26:56;;;;;;;1.10;1.00;;;5.80;99.90;;;;;;4994264;28;20038;-74
2023/01/11 06:29:22;;;;;;;1.27;0.63;;;5.80;99.90;;;;;;4993217;28;20026;-74
2023/01/11 06:31:48;;;;;;;0.60;0.60;;;;;;;;;;4993613;28;20331;-73
2023/01/11 06:34:14;;;;;;;1.42;1.15;;;5.70;99.90;;;;;;4994427;28;20030;-73
2023/01/11 06:36:40;;;;;;;2.30;0.77;;;;;;;;;;4994541;28;20026;-74
2023/01/11 06:39:06;;;;;;;0.52;0.52;;;;;;;;;;4994214;28;20047;-77
2023/01/11 06:41:31;;;;;;;1.98;1.23;;;5.50;99.90;;;;;;4994457;28;20031;-74
2023/01/11 06:43:57;;;;;;;5.75;1.90;;;;;;;;;;5009300;28;20042;-74
2023/01/11 06:46:23;;;;;;;2.20;1.98;;;;;;;;;;5009398;28;20026;-73
2023/01/11 06:48:49;;;;;;;4.45;2.42;;;;;;;;;;4994532;28;20380;-74
2023/01/11 06:51:15;;;;;;;4.57;1.98;;;5.70;99.90;;;;;;5009670;28;20121;-74
2023/01/11 06:53:42;;;;;;;6.38;2.60;;;5.60;99.90;;;;;;4993203;28;20110;-74
2023/01/11 06:56:12;;;;;;;2.63;1.80;;;;;;;;;;4996364;28;20023;-73
2023/01/11 06:58:38;;;;;;;6.28;2.45;;;5.80;99.90;;;;;;4997408;28;20042;-74
2023/01/11 07:01:04;;;;;;;1.83;1.58;;;;;;;;;;5003852;28;20360;-74
2023/01/11 07:03:30;;;;;;;2.20;1.70;;;;;;;;;;4995996;28;20399;-75
2023/01/11 07:05:57;;;;;;;3.10;2.63;;;5.60;99.90;;;;;;4993888;28;20029;-74
2023/01/11 07:08:24;;;;;;;4.72;2.40;;;;;;;;;;4993553;28;20014;-74
2023/01/11 07:10:50;;;;;;;2.78;1.73;;;;;;;;;;4993446;28;20050;-74
2023/01/11 07:13:16;;;;;;;2.42;1.13;;;;;;;;;;5008821;28;20030;-74
2023/01/11 07:15:47;;;;;;;1.83;1.33;;;;;;;;;;4993693;28;20034;-75
2023/01/11 07:18:13;;;;;;;1.25;1.05;;;;;;;;;;4993908;28;20025;-74
2023/01/11 07:20:40;;;;;;;5.53;1.50;;;;;;;;;;4993133;28;20014;-74
2023/01/11 07:23:06;;;;;;;4.00;1.65;;;;;;;;;;5008169;28;20034;-74
2023/01/11 07:25:33;;;;;;;1.48;1.38;;;;;;;;;;5000566;28;20113;-78
2023/01/11 07:28:08;;;;;;;2.58;1.63;;;5.80;99.90;;;;;;4989000;28;20054;-75
2023/01/11 07:30:36;;;;;;;2.40;1.20;;;5.90;99.90;;;;;;4994963;28;20029;-78
2023/01/11 07:33:05;;;;;;;3.45;1.38;;;;;;;;;;4985878;28;20386;-78
2023/01/11 07:35:31;;;;;;;6.65;1.38;;;;;;;;;;4990770;28;20380;-78
2023/01/11 07:37:58;;;;;;;5.57;1.67;;;5.80;99.90;;;;;;4992909;28;20471;-78
2023/01/11 07:40:24;;;;;;;3.80;2.03;;;;;;;;;;4989441;28;20026;-78
2023/01/11 07:43:10;;;;;;;6.22;1.60;;;;;;;;;;5004839;28;20035;-77
2023/01/11 07:45:37;;;;;;;3.08;1.20;;;6.20;99.90;;;;;;4971889;28;20530;-80
2023/01/11 07:48:05;;;;;;;4.38;1.02;;;;;;;;;;4972433;28;20037;-80
2023/01/11 07:50:31;;;;;;;3.90;2.28;;;;;;;;;;4974088;28;20019;-78
2023/01/11 07:52:58;;;;;;;4.47;1.90;;;;;;;;;;4974050;28;20027;-79
2023/01/11 07:55:24;;;;;;;3.38;1.23;;;;;;;;;;4972851;28;20042;-80
2023/01/11 07:57:50;;;;;;;6.13;1.02;;;;;;;;;;4973582;28;20107;-77
2023/01/11 08:00:16;;;;;;;2.15;1.35;;;;;;;;;;4972127;28;20430;-78
2023/01/11 08:02:43;;;;;;;1.90;0.98;;;;;;;;;;4973472;28;20070;-78
2023/01/11 08:05:09;;;;;;;2.85;1.17;;;;;;;;;;4972091;28;20033;-77
2023/01/11 08:07:35;;;;;;;2.10;1.98;;;;;;;;;;4970842;28;20105;-78
2023/01/11 08:10:02;;;;;;;1.30;1.20;;;6.20;99.90;;;;;;4970678;28;20113;-79
2023/01/11 08:15:13;;;;;;;2.10;1.77;;;;;;;;;;4970339;28;20117;-78
2023/01/11 08:17:39;;;;;;;1.40;1.30;;;;;;;;;;4969135;28;20372;-80
2023/01/11 08:20:04;;;;;;;1.25;1.20;;;6.60;99.90;;;;;;4971144;28;20064;-77
2023/01/11 08:22:30;;;;;;;1.90;1.45;;;;;;;;;;4968640;28;20186;-78
2023/01/11 08:24:56;;;;;;;4.18;1.35;;;;;;;;;;4969092;28;20047;-78
2023/01/11 08:27:23;;;;;;;2.10;1.45;;;;;;;;;;4970602;28;20052;-78
2023/01/11 08:29:49;;;;;;;4.13;1.95;;;;;;;;;;4968111;28;20022;-79
2023/01/11 08:32:14;;;;;;;3.03;2.35;;;6.70;99.90;;;;;;4976372;28;20079;-78
2023/01/11 08:34:40;;;;;;;7.30;3.83;;;6.90;99.90;;;;;;4975501;28;20162;-77
2023/01/11 08:37:06;;;;;;;5.43;2.97;;;;;;;;;;4974682;28;20539;-78
2023/01/11 08:39:32;;;;;;;5.00;3.13;;;7.00;99.90;;;;;;4975009;28;20027;-80
2023/01/11 08:41:59;;;;;;;4.55;2.60;;;;;;;;;;4998620;28;20097;-77
2023/01/11 08:44:25;;;;;;;3.38;2.33;;;7.30;99.90;;;;;;4973143;28;20027;-77
2023/01/11 08:46:51;;;;;;;2.72;1.95;;;;;;;;;;4972861;28;20030;-78
2023/01/11 08:49:17;;;;;;;4.88;3.28;;;7.20;99.90;;;;;;4974553;28;20042;-78
2023/01/11 08:51:43;;;;;;;3.92;2.60;;;;;;;;;;4970406;28;20019;-78
2023/01/11 08:54:13;;;;;;;5.70;1.60;;;7.40;99.90;;;;;;4983926;28;20011;-77
2023/01/11 08:56:39;;;;;;;8.88;2.22;;;;;;;;;;4972059;28;20031;-78
2023/01/11 08:59:05;;;;;;;4.80;2.13;;;;;;;;;;4969758;28;20037;-79
2023/01/11 09:01:32;;;;;;;10.30;2.78;;;;;;;;;;4970130;28;20033;-78
2023/01/11 09:03:58;;;;;;;28.40;11.77;;;;;;;;;;4970068;28;20031;-79
2023/01/11 09:06:24;;;;;;;25.27;9.18;;;;;;;;;;4968762;28;20027;-78
2023/01/11 09:08:50;;;;;;;19.38;6.95;;;;;;;;;;4968462;28;20031;-78
2023/01/11 09:14:02;;;;;;;6.30;2.88;;;;;;;;;;4972663;28;20163;-79
2023/01/11 09:16:28;;;;;;;5.10;3.35;;;7.70;99.90;;;;;;4978907;28;20054;-78
2023/01/11 09:18:55;;;;;;;7.80;4.22;;;;;;;;;;4984631;28;20051;-78
2023/01/11 09:21:21;;;;;;;3.20;2.28;;;;;;;;;;4982731;28;20413;-78
2023/01/11 09:23:47;;;;;;;5.13;2.38;;;;;;;;;;4990037;28;20049;-78
2023/01/11 09:26:13;;;;;;;1.35;0.55;;;;;;;;;;4988004;28;20042;-79
2023/01/11 09:28:40;;;;;;;2.22;1.23;;;;;;;;;;4988735;28;20026;-77
2023/01/11 09:31:07;;;;;;;0.10;0.10;;;;;;;;;;4988744;28;20376;-78
2023/01/11 09:33:33;;;;;;;2.53;0.20;;;;;;;;;;4990688;28;20030;-77
2023/01/11 09:36:01;;;;;;;0.05;0.05;;;;;;;;;;4988840;28;20034;-78
2023/01/11 09:38:32;;;;;;;0.10;0.10;;;;;;;;;;4988333;28;20402;-77
2023/01/11 09:41:22;;;;;;;0.20;0.10;;;;;;;;;;5002801;28;20042;-78
2023/01/11 09:44:13;;;;;;;0.10;0.10;;;10.70;99.90;;;;;;4987724;28;20205;-78
2023/01/11 09:46:41;;;;;;;0.10;0.10;;;;;;;;;;5003609;28;20086;-78
2023/01/11 09:49:10;;;;;;;0.00;0.00;;;;;;;;;;4988138;28;20030;-78
2023/01/11 09:51:38;;;;;;;0.10;0.10;;;;;;;;;;4990161;28;20102;-78
2023/01/11 09:54:09;;;;;;;0.13;0.13;;;;;;;;;;4991242;28;20026;-79
2023/01/11 09:56:41;;;;;;;0.10;0.10;;;;;;;;;;4988060;28;20041;-78
2023/01/11 09:59:33;;;;;;;0.08;0.08;;;10.70;99.90;;;;;;5005012;28;20026;-80
2023/01/11 10:02:32;;;;;;;0.10;0.10;;;10.60;99.90;;;;;;4992468;28;20041;-77
2023/01/11 10:05:18;;;;;;;0.00;0.00;;;;;;;;;;5012286;28;20034;-76
2023/01/11 10:07:48;;;;;;;0.40;0.10;;;;;;;;;;5028647;28;20037;-77
2023/01/11 10:10:35;;;;;;;0.20;0.10;;;10.40;99.90;;;;;;5028726;28;20030;-77
2023/01/11 10:13:03;;;;;;;0.03;0.03;;;;;;;;;;5017249;28;20125;-78
2023/01/11 10:15:31;;;;;;;2.00;0.10;;;;;;;;;;5006203;28;20030;-78
2023/01/11 10:18:42;;;;;;;0.10;0.10;;;10.30;99.90;;;;;;4988862;28;20026;-79
2023/01/11 10:21:33;;;;;;;0.00;0.00;;;10.30;99.90;;;;;;4962175;28;20034;-80
2023/01/11 10:24:28;;;;;;;0.00;0.00;;;10.10;99.90;;;;;;4974757;28;20039;-78
2023/01/11 10:27:00;;;;;;;0.10;0.10;;;;;;;;;;4985461;28;20041;-77
2023/01/11 10:29:52;;;;;;;0.10;0.10;;;10.20;99.90;;;;;;5002997;28;20066;-78
2023/01/11 10:32:52;;;;;;;0.30;0.20;;;10.10;99.90;;;;;;5001674;28;20019;-78
2023/01/11 10:35:44;;;;;;;0.10;0.10;;;10.30;99.90;;;;;;4985735;28;20005;-78
2023/01/11 10:38:41;;;;;;;0.00;0.00;;;10.30;99.90;;;;;;4987405;28;20034;-77
2023/01/11 10:41:28;;;;;;;0.05;0.05;;;10.20;99.90;;;;;;4998398;28;20030;-78
2023/01/11 10:44:42;;;;;;;0.00;0.00;;;10.60;99.90;;;;;;4985120;28;20373;-78
2023/01/11 10:47:38;;;;;;;0.10;0.03;;;10.40;99.90;;;;;;4984928;28;20027;-77
2023/01/11 10:50:38;;;;;;;0.00;0.00;;;10.50;99.90;;;;;;4984029;28;20023;-77
2023/01/11 10:53:24;;;;;;;0.10;0.10;;;10.60;99.90;;;;;;4980051;28;20018;-79
2023/01/11 10:56:03;;;;;;;0.00;0.00;;;10.60;99.90;;;;;;4979843;28;20408;-79
2023/01/11 10:58:41;;;;;;;0.00;0.00;;;10.40;99.90;;;;;;4982709;28;20023;-79
2023/01/11 11:01:27;;;;;;;0.08;0.08;;;10.40;99.90;;;;;;4982711;28;20027;-77
2023/01/11 11:04:02;;;;;;;0.00;0.00;;;10.60;99.90;;;;;;4986522;28;20037;-79
2023/01/11 11:06:52;;;;;;;0.10;0.00;;;10.50;99.90;;;;;;4987869;28;20022;-78
2023/01/11 11:09:27;;;;;;;0.00;0.00;;;10.70;99.90;;;;;;4982816;28;20042;-77
2023/01/11 11:12:06;;;;;;;0.00;0.00;;;10.60;99.90;;;;;;4986795;28;20031;-78
2023/01/11 11:15:07;;;;;;;0.00;0.00;;;10.60;99.90;;;;;;4986942;28;20033;-80
2023/01/11 11:17:42;;;;;;;0.05;0.05;;;10.60;99.90;;;;;;4961360;28;20050;-78
2023/01/11 11:20:14;;;;;;;0.00;0.00;;;10.50;99.90;;;;;;4984173;28;20045;-78
2023/01/11 11:22:40;;;;;;;0.00;0.00;;;;;;;;;;5000363;28;20037;-78
2023/01/11 11:25:26;;;;;;;0.00;0.00;;;10.60;99.90;;;;;;5002524;28;20046;-79
2023/01/11 11:27:56;;;;;;;0.00;0.00;;;;;;;;;;5004019;28;20387;-78
2023/01/11 11:30:31;;;;;;;0.10;0.10;;;10.50;99.90;;;;;;5000966;28;20031;-78
2023/01/11 11:33:00;;;;;;;0.00;0.00;;;;;;;;;;5000020;28;20026;-78
2023/01/11 11:35:29;;;;;;;0.10;0.10;;;;;;;;;;5001355;28;20022;-79
2023/01/11 11:37:56;;;;;;;0.00;0.00;;;;;;;;;;4994498;28;20318;-78
2023/01/11 11:40:36;;;;;;;0.20;0.20;;;10.30;99.90;;;;;;5003888;28;20034;-81
2023/01/11 11:43:10;;;;;;;1.10;0.03;;;;;;;;;;5000629;28;20038;-78
2023/01/11 11:45:36;;;;;;;0.00;0.00;;;;;;;;;;4999894;28;20109;-78
2023/01/11 11:48:04;;;;;;;0.20;0.20;;;10.30;99.90;;;;;;5001762;28;20537;-80
2023/01/11 11:50:31;;;;;;;0.20;0.10;;;;;;;;;;5019226;28;20026;-77
2023/01/11 11:53:02;;;;;;;0.45;0.30;;;;;;;;;;5001171;28;20022;-78
2023/01/11 11:55:30;;;;;;;0.10;0.10;;;;;;;;;;4993343;28;20080;-77
2023/01/11 11:57:58;;;;;;;0.20;0.20;;;;;;;;;;4988168;28;20026;-77
2023/01/11 12:00:33;;;;;;;0.17;0.17;;;10.30;99.90;;;;;;4988074;28;20030;-77
2023/01/11 12:03:02;;;;;;;0.15;0.15;;;;;;;;;;4988849;28;20399;-78
2023/01/11 12:05:28;;;;;;;0.10;0.10;;;;;;;;;;4991105;28;20064;-78
2023/01/11 12:07:54;;;;;;;0.08;0.08;;;;;;;;;;4991237;28;20030;-77
2023/01/11 12:10:22;;;;;;;0.10;0.10;;;;;;;;;;4992131;28;20090;-79
2023/01/11 12:12:53;;;;;;;0.10;0.10;;;;;;;;;;4991879;28;20050;-78
2023/01/11 12:15:21;;;;;;;0.00;0.00;;;;;;;;;;4991268;28;20068;-77
2023/01/11 12:17:48;;;;;;;0.00;0.00;;;;;;;;;;4988756;28;20348;-77
2023/01/11 12:20:29;;;;;;;0.00;0.00;;;10.20;99.90;;;;;;4988588;28;20026;-77
2023/01/11 12:23:15;;;;;;;0.08;0.08;;;;;;;;;;4988702;28;20558;-77
2023/01/11 12:25:45;;;;;;;0.10;0.10;;;;;;;;;;4989162;28;20573;-77
2023/01/11 12:28:49;;;;;;;0.10;0.10;;;10.20;99.90;;;;;;4994097;28;20073;-79
2023/01/11 12:31:24;;;;;;;0.00;0.00;;;10.10;99.90;;;;;;5005145;28;20045;-77
2023/01/11 12:34:03;;;;;;;0.03;0.03;;;10.20;99.90;;;;;;5005517;28;20046;-78
2023/01/11 12:37:11;;;;;;;0.13;0.13;;;10.20;99.90;;;;;;5009414;28;20018;-78
2023/01/11 12:39:48;;;;;;;0.00;0.00;;;10.20;99.90;;;;;;5006273;28;20326;-79
2023/01/11 12:42:33;;;;;;;0.00;0.00;;;10.20;99.90;;;;;;5005004;28;20223;-80
2023/01/11 12:45:08;;;;;;;0.10;0.10;;;;;;;;;;5005240;28;20018;-76
2023/01/11 12:48:18;;;;;;;0.30;0.30;;;10.20;99.90;;;;;;5006119;28;20011;-77
2023/01/11 12:51:02;;;;;;;0.10;0.10;;;;;;;;;;5005085;28;20057;-78
2023/01/11 12:53:41;;;;;;;0.00;0.00;;;10.20;99.90;;;;;;5000010;28;20057;-80
2023/01/11 12:56:13;;;;;;;0.00;0.00;;;10.40;99.90;;;;;;5003091;28;20033;-80
2023/01/11 12:58:43;;;;;;;0.10;0.10;;;;;;;;;;4999925;28;20247;-78
2023/01/11 13:01:28;;;;;;;0.20;0.10;;;;;;;;;;4998082;28;20146;-77
2023/01/11 13:04:15;;;;;;;0.00;0.00;;;10.30;99.90;;;;;;4985195;28;20319;-80
2023/01/11 13:06:59;;;;;;;0.88;0.20;;;10.30;99.90;;;;;;4996981;28;20022;-76
2023/01/11 13:09:34;;;;;;;0.20;0.20;;;;;;;;;;5004274;28;20045;-76
2023/01/11 13:12:08;;;;;;;0.00;0.00;;;;;;;;;;4999539;28;20036;-76
2023/01/11 13:14:41;;;;;;;0.10;0.10;;;;;;;;;;4991879;28;20061;-77
2023/01/11 13:17:13;;;;;;;0.10;0.10;;;;;;;;;;4980758;28;20030;-77
2023/01/11 13:19:59;;;;;;;0.05;0.05;;;9.90;99.90;;;;;;4993771;28;20101;-80
2023/01/11 13:22:28;;;;;;;0.10;0.10;;;;;;;;;;4994380;28;20421;-78
2023/01/11 13:24:54;;;;;;;;;;;9.90;99.90;;;;;;4996240;28;20106;-79
2023/01/11 13:27:22;;;;;;;0.00;0.00;;;;;;;;;;5000993;28;19957;-79
2023/01/11 13:29:52;;;;;;;0.30;0.20;;;10.00;99.90;;;;;;5006949;28;20027;-82
2023/01/11 13:32:23;;;;;;;0.20;0.10;;;;;;;;;;5001019;28;20027;-78
2023/01/11 13:34:54;;;;;;;0.10;0.10;;;;;;;;;;4993166;28;20520;-78
2023/01/11 13:37:20;;;;;;;0.90;0.10;;;;;;;;;;5013505;28;20030;-77
2023/01/11 13:39:49;;;;;;;0.15;0.15;;;;;;;;;;4989942;28;20022;-77
2023/01/11 13:42:20;;;;;;;0.10;0.10;;;;;;;;;;4989201;28;20042;-77
2023/01/11 13:44:55;;;;;;;0.10;0.10;;;10.50;99.90;;;;;;5005910;28;20062;-81
2023/01/11 13:47:40;;;;;;;3.10;0.25;;;10.30;99.90;;;;;;5011150;28;20023;-78
2023/01/11 13:50:27;;;;;;;0.10;0.10;;;10.30;99.90;;;;;;4992244;28;20122;-77
2023/01/11 13:53:08;;;;;;;0.10;0.10;;;10.20;99.90;;;;;;5014110;28;20033;-82
2023/01/11 13:55:34;;;;;;;0.57;0.45;;;;;;;;;;5012594;28;20261;-82
2023/01/11 13:58:19;;;;;;;0.10;0.10;;;10.30;99.90;;;;;;5011395;28;20242;-81
2023/01/11 14:00:53;;;;;;;0.20;0.20;;;10.20;99.90;;;;;;5018280;28;20038;-79
2023/01/11 14:03:26;;;;;;;0.10;0.10;;;;;;;;;;4989708;28;20038;-80
2023/01/11 14:05:52;;;;;;;0.10;0.10;;;;;;;;;;5001916;28;20031;-80
2023/01/11 14:08:30;;;;;;;0.10;0.10;;;;;;;;;;4987456;28;20424;-79
2023/01/11 14:11:08;;;;;;;1.23;0.43;;;;;;;;;;4989047;28;20015;-78
2023/01/11 14:16:46;;;;;;;0.10;0.10;;;;;;;;;;4988053;28;20045;-77
2023/01/11 14:19:24;;;;;;;0.57;0.57;;;;;;;;;;4983307;28;20440;-77
2023/01/11 14:22:04;;;;;;;0.10;0.10;;;;;;;;;;4986541;28;20031;-78
2023/01/11 14:24:32;;;;;;;0.10;0.10;;;;;;;;;;4993873;28;20046;-77
2023/01/11 14:27:26;;;;;;;0.32;0.32;;;10.30;99.90;;;;;;4997748;28;20097;-77
2023/01/11 14:29:57;;;;;;;0.10;0.10;;;;;;;;;;4996140;28;20050;-77
2023/01/11 14:32:23;;;;;;;0.52;0.20;;;;;;;;;;4996637;28;20260;-78
2023/01/11 14:34:49;;;;;;;0.13;0.10;;;;;;;;;;4993552;28;20254;-77
2023/01/11 14:37:29;;;;;;;0.10;0.10;;;;;;;;;;5010774;28;20034;-78
2023/01/11 14:40:17;;;;;;;0.15;0.15;;;;;;;;;;5008096;28;20057;-77
2023/01/11 14:42:58;;;;;;;0.95;0.20;;;;;;;;;;5002063;28;20046;-77
2023/01/11 14:45:51;;;;;;;0.35;0.10;;;9.70;99.90;;;;;;5012544;28;20022;-77
2023/01/11 14:48:28;;;;;;;1.08;0.40;;;;;;;;;;4998663;28;20045;-77
2023/01/11 14:51:00;;;;;;;0.10;0.10;;;9.90;99.90;;;;;;5015343;28;20189;-77